Austin, Minnesota
Current Conditions -  °F | °C
As of 10:15 PM on Sunday 23 Nov 2014 (Local Time) from KAUM Reporting Station
Overcast Overcast  
Wind Chill: 25°   Ceiling: 700
Heat Index: 36°   Visibility: 10mi
Dew Point: 34°   Wind: 20mph
Humidity: 93%   Direction: 320°NW
Pressure: 29.31"   Gusts: 33mph
Location:  43.67°N, 92.97°W
Report Text: KAUM 240415Z AUTO 32017G29KT 10SM OVC007 02/01 A2931 RMK AO2
Loading
Personal Weather Stations






























Interactive Weather Map New forecast layout! Learn more

10-Day Weather Forecast

Advertisements
Track Severe Weather on mobile